Latest Coastal Weather Observations for Lake Macquarie - Cooranbong

IDN60701

Issued at 10:51 pm EDT Sunday 19 February 2017 (issued every 10 minutes, with the page automatically refreshed every 10 minutes)

About coastal observations | Map of coastal stations | Coastal observations for NSW | Marine services | Other Formats
Station Details ID: 061412 Name: LAKE MACQUARIE AWS Lat: -33.09 Lon: 151.46 Height: 6.0 m
Data from the previous 72 hours. | See also: Recent months at Lake Macquarie - Cooranbong
Date/Time
EDT
Temp
°C
Wind Pressure Rain since
9am
mm
Weather Cloud Vis
km
Sea
Height
m
Swell
Dir  Spd
kts
Gust
kts
hPa Trend Height
m
Period
s
Dir
19/10:30pm 21.0 WSW 2 3 1005.9 - 0.0 - - - - - - -
19/10:00pm 21.1 WSW 1 2 1006.2 - 0.0 - - - - - - -
19/09:30pm 21.1 SSW 1 2 1006.0 - 0.0 - - - - - - -
19/09:00pm 21.0 SSE 1 2 1005.2 - 0.0 - - - - - - -
19/08:30pm 21.2 CALM 0 1 1005.1 - 0.0 - - - - - - -
19/08:00pm 21.4 N 5 6 1005.6 - 0.0 - - - - - - -
19/07:30pm 22.0 N 3 5 1005.8 - 0.0 - - - - - - -
19/07:00pm 22.2 N 2 3 1005.6 - 0.0 - - - - - - -
19/06:30pm 22.6 ENE 1 3 1005.0 - 0.0 - - - - - - -
19/06:00pm 22.8 ENE 3 5 1005.2 - 0.0 - - - - - - -
19/05:30pm 23.2 E 3 6 1005.4 - 0.0 - - - - - - -
19/05:00pm 23.6 E 2 5 1005.1 - 0.0 - - - - - - -
19/04:30pm 23.1 SE 5 8 1005.6 - 0.0 - - - - - - -
19/04:00pm 23.0 ESE 3 7 1005.8 - 0.0 - - - - - - -
19/03:30pm 23.7 E 3 5 1006.0 - 0.0 - - - - - - -
19/03:00pm 23.9 ENE 2 5 1006.7 - 0.0 - - - - - - -
19/02:30pm 24.3 ESE 2 4 1006.6 - 0.0 - - - - - - -
19/02:00pm 23.8 SSW 2 6 1007.0 - 0.0 - - - - - - -
19/01:30pm 23.5 SW 4 7 1007.5 - 0.0 - - - - - - -
19/01:00pm 22.8 SSW 4 8 1007.9 - 0.0 - - - - - - -
19/12:30pm 22.6 SW 3 6 1008.5 - 0.0 - - - - - - -
19/12:00pm 22.2 WSW 3 5 1008.6 - 0.0 - - - - - - -
19/11:30am 21.9 SW 3 5 1008.9 - 0.0 - - - - - - -
19/11:00am 22.1 SW 3 6 1008.9 - 0.0 - - - - - - -
19/10:30am 21.8 SSW 4 7 1008.7 - 0.0 - - - - - - -
19/10:00am 21.5 SSW 3 5 1008.8 - 0.0 - - - - - - -
19/09:30am 21.5 WSW 3 8 1008.6 - 0.0 - - - - - - -
19/09:00am 20.9 SW 3 5 1008.6 - 5.2 - - - - - - -
19/08:30am 20.8 SSW 2 5 1008.5 - 5.2 - - - - - - -
19/08:00am 20.4 SW 3 6 1008.3 - 5.2 - - - - - - -
19/07:30am 20.2 SW 1 3 1008.0 - 5.2 - - - - - - -
19/07:00am 20.6 SW 2 5 1007.8 - 5.2 - - - - - - -
19/06:30am 21.0 SW 3 5 1007.3 - 4.8 - - - - - - -
19/06:00am 21.4 SSW 2 5 1007.1 - 4.8 - - - - - - -
19/05:30am 21.8 SSE 2 3 1006.8 - 4.8 - - - - - - -
19/05:00am 21.9 CALM 0 0 1006.4 - 4.8 - - - - - - -
19/04:30am 21.9 SW 3 9 1006.0 - 4.8 - - - - - - -
19/04:00am 22.0 SW 1 2 1006.0 - 4.8 - - - - - - -
19/03:30am 22.1 SW 2 4 1006.0 - 4.8 - - - - - - -
19/03:00am 22.3 SW 2 3 1006.0 - 4.8 - - - - - - -
19/02:30am 22.4 SW 2 5 1005.5 - 4.8 - - - - - - -
19/02:00am 22.5 SW 3 5 1005.3 - 4.8 - - - - - - -
19/01:30am 22.7 SW 1 3 1005.7 - 4.8 - - - - - - -
19/01:00am 22.8 SSW 2 6 1005.8 - 4.8 - - - - - - -
19/12:30am 22.7 SW 3 8 1005.5 - 4.8 - - - - - - -
19/12:00am 22.6 WSW 4 9 1005.5 - 4.8 - - - - - - -
 
Date/Time
EDT
Temp
°C
Wind Pressure Rain since
9am
mm
Weather Cloud Vis
km
Sea
Height
m
Swell
Dir  Spd
kts
Gust
kts
hPa Trend Height
m
Period
s
Dir
18/11:30pm 22.9 SSW 2 5 1005.7 - 4.8 - - - - - - -
18/11:00pm 23.1 SW 2 5 1006.2 - 4.8 - - - - - - -
18/10:30pm 23.0 SSW 3 6 1006.1 - 4.8 - - - - - - -
18/10:00pm 23.0 SW 3 6 1006.5 - 4.8 - - - - - - -
18/09:30pm 22.8 SSW 2 5 1005.8 - 4.8 - - - - - - -
18/09:00pm 22.9 SW 2 5 1005.2 - 4.8 - - - - - - -
18/08:30pm 23.1 WSW 2 4 1004.8 - 4.8 - - - - - - -
18/08:00pm 23.0 CALM 0 3 1004.3 - 4.8 - - - - - - -
18/07:30pm 23.4 S 3 9 1003.6 - 4.6 - - - - - - -
18/07:00pm 23.6 S 4 8 1003.0 - 4.4 - - - - - - -
18/06:30pm 23.5 S 4 7 1003.5 - 4.2 - - - - - - -
18/06:15pm 25.6 W 4 15 1004.4 - 0.4 - - - - - - -
18/06:00pm 26.4 NW 2 3 1002.4 - 0.4 Recent precip. - - - - - -
18/05:30pm 26.3 S 1 5 1003.3 - 0.2 - - - - - - -
18/05:00pm 26.9 SSE 1 3 1003.6 - 0.0 - - - - - - -
18/04:30pm 27.1 ENE 4 6 1002.7 - 0.0 - - - - - - -
18/04:00pm 28.7 ESE 7 13 1003.2 - 0.0 - - - - - - -
18/03:30pm 28.9 SE 6 12 1004.1 - 0.0 - - - - - - -
18/03:00pm 28.3 ESE 7 13 1004.8 - 0.0 - - - - - - -
18/02:30pm 28.0 SE 6 13 1005.2 - 0.0 - - - - - - -
18/02:00pm 29.3 ESE 8 12 1005.2 - 0.0 - - - - - - -
18/01:30pm 28.9 SE 5 10 1005.2 - 0.0 - - - - - - -
18/01:00pm 28.3 SE 7 11 1005.3 - 0.0 - - - - - - -
18/12:30pm 28.9 ESE 8 12 1005.4 - 0.0 - - - - - - -
18/12:00pm 29.4 ESE 8 15 1005.5 - 0.0 - - - - - - -
18/11:30am 29.8 SE 7 12 1005.9 - 0.0 - - - - - - -
18/11:00am 33.7 N 4 8 1005.5 - 0.0 - - - - - - -
18/10:30am 32.8 N 3 6 1005.7 - 0.0 - - - - - - -
18/10:00am 31.6 NW 3 7 1005.7 - 0.0 - - - - - - -
18/09:30am 29.9 NW 3 7 1005.9 - 0.0 - - - - - - -
18/09:00am 29.5 N 3 7 1005.9 - 0.0 - - - - - - -
18/08:30am 28.6 NNW 4 7 1005.7 - 0.0 - - - - - - -
18/08:00am 28.0 NW 4 10 1005.7 - 0.0 - - - - - - -
18/07:30am 26.9 NNW 6 12 1005.6 - 0.0 - - - - - - -
18/07:00am 26.4 NW 5 9 1005.4 - 0.0 - - - - - - -
18/06:30am 25.6 NNW 3 6 1005.3 - 0.0 - - - - - - -
18/06:00am 23.6 NNW 3 8 1005.1 - 0.0 - - - - - - -
18/05:30am 21.1 SSE 2 4 1005.3 - 0.0 - - - - - - -
18/05:00am 21.4 CALM 0 1 1005.2 - 0.0 - - - - - - -
18/04:30am 21.8 N 3 4 1005.3 - 0.0 - - - - - - -
18/04:00am 22.4 NNW 3 3 1005.6 - 0.0 - - - - - - -
18/03:30am 24.1 NW 3 5 1006.2 - 0.0 - - - - - - -
18/03:00am 21.6 NNW 2 3 1006.6 - 0.0 - - - - - - -
18/02:30am 22.0 CALM 0 2 1006.9 - 0.0 - - - - - - -
18/02:00am 23.1 NNE 3 5 1007.3 - 0.0 - - - - - - -
18/01:30am 21.8 N 2 4 1007.8 - 0.0 - - - - - - -
18/01:00am 22.0 N 1 3 1008.5 - 0.0 - - - - - - -
18/12:30am 22.4 N 3 6 1008.9 - 0.0 - - - - - - -
18/12:00am 22.6 N 4 6 1009.5 - 0.0 - - - - - - -
 
Date/Time
EDT
Temp
°C
Wind Pressure Rain since
9am
mm
Weather Cloud Vis
km
Sea
Height
m
Swell
Dir  Spd
kts
Gust
kts
hPa Trend Height
m
Period
s
Dir
17/11:30pm 23.0 N 6 8 1010.1 - 0.0 - - - - - - -
17/11:00pm 23.4 NE 2 5 1010.7 - 0.0 - - - - - - -
17/10:30pm 23.8 E 3 4 1011.2 - 0.0 - - - - - - -
17/10:00pm 23.6 SW 2 5 1012.1 - 0.0 - - - - - - -
17/09:30pm 23.2 SSE 2 4 1010.9 - 0.0 - - - - - - -
17/09:00pm 22.8 NNE 2 3 1009.7 - 0.0 - - - - - - -
17/08:30pm 23.4 NNW 1 3 1008.8 - 0.0 - - - - - - -
17/08:00pm 24.2 CALM 0 1 1009.3 - 0.0 - - - - - - -
17/07:30pm 24.9 SE 4 7 1008.9 - 0.0 - - - - - - -
17/07:00pm 26.6 ESE 5 7 1009.2 - 0.0 - - - - - - -
17/06:30pm 27.1 ESE 3 5 1009.1 - 0.0 - - - - - - -
17/06:00pm 26.9 SSW 3 6 1008.0 - 0.0 - - - - - - -
17/05:30pm 25.9 SSE 5 11 1008.3 - 0.0 - - - - - - -
17/05:00pm 30.6 SW 3 11 1007.3 - 0.0 - - - - - - -
17/04:56pm 30.7 WNW 1 4 1006.5 - 0.0 - - - - - - -
17/04:30pm 31.2 NE 6 13 1004.5 - 0.0 - - - - - - -
17/04:00pm 32.3 E 8 14 1004.6 - 0.0 - - - - - - -
17/03:30pm 34.0 E 7 15 1005.3 - 0.0 - - - - - - -
17/03:00pm 37.5 NE 7 19 1005.8 - 0.0 - - - - - - -
17/02:30pm 37.3 N 11 18 1006.6 - 0.0 - - - - - - -
17/02:00pm 35.8 N 8 19 1007.3 - 0.0 - - - - - - -
17/01:30pm 36.5 N 8 13 1007.6 - 0.0 - - - - - - -
17/01:00pm 35.7 NE 6 9 1008.3 - 0.0 - - - - - - -
17/12:30pm 33.0 NNE 5 10 1008.9 - 0.0 - - - - - - -
17/12:00pm 32.7 NNE 5 9 1009.6 - 0.0 - - - - - - -
17/11:30am 30.1 NNE 5 9 1010.0 - 0.0 - - - - - - -
17/11:00am 29.1 N 6 12 1010.2 - 0.0 - - - - - - -
17/10:30am 30.4 NW 6 14 1010.1 - 0.0 - - - - - - -
17/10:00am 29.8 SE 2 4 1010.1 - 0.0 - - - - - - -
17/09:30am 27.0 SE 1 2 1010.2 - 0.0 - - - - - - -
17/09:00am 24.8 CALM 0 3 1010.5 - 0.0 - - - - - - -
17/08:30am 23.1 S 1 2 1010.4 - 0.0 - - - - - - -
17/08:00am 20.4 CALM 0 0 1010.4 - 0.0 - - - - - - -
17/07:30am 18.5 CALM 0 0 1010.2 - 0.0 - - - - - - -
17/07:00am 18.3 CALM 0 0 1009.9 - 0.0 - - - - - - -
17/06:30am 18.3 CALM 0 0 1009.7 - 0.0 - - - - - - -
17/06:00am 18.3 CALM 0 0 1009.6 - 0.0 - - - - - - -
17/05:30am 18.3 CALM 0 0 1009.3 - 0.0 - - - - - - -
17/05:00am 18.6 CALM 0 0 1009.2 - 0.0 - - - - - - -
17/04:30am 18.9 CALM 0 0 1009.2 - 0.0 - - - - - - -
17/04:00am 19.1 CALM 0 0 1009.1 - 0.0 - - - - - - -
17/03:30am 19.2 CALM 0 0 1009.1 - 0.0 - - - - - - -
17/03:00am 19.9 CALM 0 0 1009.2 - 0.0 - - - - - - -
17/02:30am 20.1 CALM 0 0 1009.4 - 0.0 - - - - - - -
17/02:00am 20.6 CALM 0 0 1009.5 - 0.0 - - - - - - -
17/01:30am 21.8 CALM 0 0 1009.8 - 0.0 - - - - - - -
17/01:00am 21.9 CALM 0 0 1009.9 - 0.0 - - - - - - -
17/12:30am 22.8 CALM 0 1 1009.9 - 0.0 - - - - - - -
17/12:00am 23.2 CALM 0 0 1010.0 - 0.0 - - - - - - -
 
Date/Time
EDT
Temp
°C
Wind Pressure Rain since
9am
mm
Weather Cloud Vis
km
Sea
Height
m
Swell
Dir  Spd
kts
Gust
kts
hPa Trend Height
m
Period
s
Dir
16/11:30pm 24.2 NE 1 3 1010.0 - 0.0 - - - - - - -
16/11:00pm 23.5 CALM 0 0 1010.2 - 0.0 - - - - - - -

Other Formats:

Comma delimited format used in spreadsheet applications
http://www.bom.gov.au/fwo/IDN60701/IDN60701.95767.axf

JavaScript Object Notation format (JSON) in row-major order
http://www.bom.gov.au/fwo/IDN60701/IDN60701.95767.json